sensor_id;sensor_type;location;lat;lon;timestamp;P1;durP1;ratioP1;P2;durP2;ratioP2
26486;SDS011;14425;56.136;40.360;2024-02-26T00:01:40;3.35;;;1.50;;
26486;SDS011;14425;56.136;40.360;2024-02-26T00:04:06;2.85;;;1.70;;
26486;SDS011;14425;56.136;40.360;2024-02-26T00:06:31;10.15;;;1.70;;
26486;SDS011;14425;56.136;40.360;2024-02-26T00:09:00;3.78;;;1.60;;
26486;SDS011;14425;56.136;40.360;2024-02-26T00:11:27;3.33;;;1.73;;
26486;SDS011;14425;56.136;40.360;2024-02-26T00:13:53;3.15;;;1.33;;
26486;SDS011;14425;56.136;40.360;2024-02-26T00:16:18;2.92;;;1.27;;
26486;SDS011;14425;56.136;40.360;2024-02-26T00:18:46;4.43;;;1.40;;
26486;SDS011;14425;56.136;40.360;2024-02-26T00:21:12;3.25;;;1.20;;
26486;SDS011;14425;56.136;40.360;2024-02-26T00:23:40;3.50;;;1.58;;
26486;SDS011;14425;56.136;40.360;2024-02-26T00:26:05;5.30;;;1.63;;
26486;SDS011;14425;56.136;40.360;2024-02-26T00:28:31;5.10;;;2.00;;
26486;SDS011;14425;56.136;40.360;2024-02-26T00:30:56;2.10;;;1.70;;
26486;SDS011;14425;56.136;40.360;2024-02-26T00:33:22;2.33;;;1.40;;
26486;SDS011;14425;56.136;40.360;2024-02-26T00:35:48;2.30;;;1.40;;
26486;SDS011;14425;56.136;40.360;2024-02-26T00:38:14;3.35;;;1.73;;
26486;SDS011;14425;56.136;40.360;2024-02-26T00:40:39;2.85;;;1.75;;
26486;SDS011;14425;56.136;40.360;2024-02-26T00:43:06;2.63;;;1.45;;
26486;SDS011;14425;56.136;40.360;2024-02-26T00:45:31;2.60;;;1.33;;
26486;SDS011;14425;56.136;40.360;2024-02-26T00:47:59;2.72;;;1.48;;
26486;SDS011;14425;56.136;40.360;2024-02-26T00:50:31;4.32;;;1.48;;
26486;SDS011;14425;56.136;40.360;2024-02-26T00:52:56;4.10;;;1.88;;
26486;SDS011;14425;56.136;40.360;2024-02-26T00:55:24;4.40;;;2.28;;
26486;SDS011;14425;56.136;40.360;2024-02-26T00:57:50;2.33;;;1.60;;
26486;SDS011;14425;56.136;40.360;2024-02-26T01:00:15;3.42;;;1.92;;
26486;SDS011;14425;56.136;40.360;2024-02-26T01:02:41;2.80;;;1.90;;
26486;SDS011;14425;56.136;40.360;2024-02-26T01:05:07;1.60;;;1.00;;
26486;SDS011;14425;56.136;40.360;2024-02-26T01:07:34;1.98;;;1.35;;
26486;SDS011;14425;56.136;40.360;2024-02-26T01:10:01;2.60;;;1.60;;
26486;SDS011;14425;56.136;40.360;2024-02-26T01:12:29;4.05;;;2.20;;
26486;SDS011;14425;56.136;40.360;2024-02-26T01:14:55;3.65;;;2.05;;
26486;SDS011;14425;56.136;40.360;2024-02-26T01:17:20;2.58;;;1.35;;
26486;SDS011;14425;56.136;40.360;2024-02-26T01:19:45;3.28;;;1.45;;
26486;SDS011;14425;56.136;40.360;2024-02-26T01:22:11;3.53;;;1.40;;
26486;SDS011;14425;56.136;40.360;2024-02-26T01:24:36;4.78;;;1.95;;
26486;SDS011;14425;56.136;40.360;2024-02-26T01:27:05;3.08;;;2.28;;
26486;SDS011;14425;56.136;40.360;2024-02-26T01:29:31;4.00;;;2.08;;
26486;SDS011;14425;56.136;40.360;2024-02-26T01:31:59;6.07;;;1.73;;
26486;SDS011;14425;56.136;40.360;2024-02-26T01:34:24;4.28;;;2.00;;
26486;SDS011;14425;56.136;40.360;2024-02-26T01:36:50;2.63;;;1.40;;
26486;SDS011;14425;56.136;40.360;2024-02-26T01:39:15;3.45;;;1.80;;
26486;SDS011;14425;56.136;40.360;2024-02-26T01:41:40;3.25;;;1.58;;
26486;SDS011;14425;56.136;40.360;2024-02-26T01:44:06;9.27;;;2.10;;
26486;SDS011;14425;56.136;40.360;2024-02-26T01:46:32;2.95;;;1.48;;
26486;SDS011;14425;56.136;40.360;2024-02-26T01:48:58;3.38;;;1.50;;
26486;SDS011;14425;56.136;40.360;2024-02-26T01:51:24;9.32;;;2.17;;
26486;SDS011;14425;56.136;40.360;2024-02-26T01:53:52;8.50;;;2.10;;
26486;SDS011;14425;56.136;40.360;2024-02-26T01:56:18;5.90;;;2.10;;
26486;SDS011;14425;56.136;40.360;2024-02-26T01:58:47;4.07;;;1.65;;
26486;SDS011;14425;56.136;40.360;2024-02-26T02:01:16;2.63;;;1.92;;
26486;SDS011;14425;56.136;40.360;2024-02-26T02:03:43;4.40;;;2.15;;
26486;SDS011;14425;56.136;40.360;2024-02-26T02:06:10;3.72;;;2.22;;
26486;SDS011;14425;56.136;40.360;2024-02-26T02:08:36;4.30;;;1.73;;
26486;SDS011;14425;56.136;40.360;2024-02-26T02:11:02;9.65;;;2.17;;
26486;SDS011;14425;56.136;40.360;2024-02-26T02:13:28;3.33;;;2.40;;
26486;SDS011;14425;56.136;40.360;2024-02-26T02:15:54;3.85;;;2.08;;
26486;SDS011;14425;56.136;40.360;2024-02-26T02:18:19;2.78;;;2.10;;
26486;SDS011;14425;56.136;40.360;2024-02-26T02:20:45;2.67;;;1.92;;
26486;SDS011;14425;56.136;40.360;2024-02-26T02:23:10;2.65;;;2.00;;
26486;SDS011;14425;56.136;40.360;2024-02-26T02:25:35;3.65;;;1.70;;
26486;SDS011;14425;56.136;40.360;2024-02-26T02:28:01;4.78;;;2.08;;
26486;SDS011;14425;56.136;40.360;2024-02-26T02:30:27;4.85;;;1.45;;
26486;SDS011;14425;56.136;40.360;2024-02-26T02:32:53;5.20;;;1.88;;
26486;SDS011;14425;56.136;40.360;2024-02-26T02:35:19;6.25;;;2.40;;
26486;SDS011;14425;56.136;40.360;2024-02-26T02:37:44;4.25;;;2.20;;
26486;SDS011;14425;56.136;40.360;2024-02-26T02:40:09;4.15;;;1.85;;
26486;SDS011;14425;56.136;40.360;2024-02-26T02:42:35;7.10;;;2.80;;
26486;SDS011;14425;56.136;40.360;2024-02-26T02:45:00;6.78;;;2.10;;
26486;SDS011;14425;56.136;40.360;2024-02-26T02:47:26;4.10;;;2.03;;
26486;SDS011;14425;56.136;40.360;2024-02-26T02:49:51;5.45;;;1.98;;
26486;SDS011;14425;56.136;40.360;2024-02-26T02:52:17;6.90;;;2.55;;
26486;SDS011;14425;56.136;40.360;2024-02-26T02:54:42;3.92;;;1.92;;
26486;SDS011;14425;56.136;40.360;2024-02-26T02:57:08;4.47;;;1.98;;
26486;SDS011;14425;56.136;40.360;2024-02-26T02:59:33;5.18;;;2.20;;
26486;SDS011;14425;56.136;40.360;2024-02-26T03:01:59;5.53;;;2.03;;
26486;SDS011;14425;56.136;40.360;2024-02-26T03:04:24;4.43;;;1.77;;
26486;SDS011;14425;56.136;40.360;2024-02-26T03:06:50;3.95;;;1.98;;
26486;SDS011;14425;56.136;40.360;2024-02-26T03:09:18;6.63;;;2.05;;
26486;SDS011;14425;56.136;40.360;2024-02-26T03:11:43;7.15;;;2.10;;
26486;SDS011;14425;56.136;40.360;2024-02-26T03:14:12;12.50;;;3.03;;
26486;SDS011;14425;56.136;40.360;2024-02-26T03:16:37;6.95;;;2.42;;
26486;SDS011;14425;56.136;40.360;2024-02-26T03:19:05;6.57;;;2.72;;
26486;SDS011;14425;56.136;40.360;2024-02-26T03:21:31;5.97;;;2.50;;
26486;SDS011;14425;56.136;40.360;2024-02-26T03:23:56;6.50;;;2.38;;
26486;SDS011;14425;56.136;40.360;2024-02-26T03:26:22;5.10;;;1.63;;
26486;SDS011;14425;56.136;40.360;2024-02-26T03:28:48;3.10;;;1.48;;
26486;SDS011;14425;56.136;40.360;2024-02-26T03:31:13;6.32;;;2.40;;
26486;SDS011;14425;56.136;40.360;2024-02-26T03:33:41;7.28;;;2.08;;
26486;SDS011;14425;56.136;40.360;2024-02-26T03:36:07;6.00;;;2.35;;
26486;SDS011;14425;56.136;40.360;2024-02-26T03:38:32;3.33;;;1.83;;
26486;SDS011;14425;56.136;40.360;2024-02-26T03:40:58;4.68;;;2.15;;
26486;SDS011;14425;56.136;40.360;2024-02-26T03:43:23;6.70;;;2.60;;
26486;SDS011;14425;56.136;40.360;2024-02-26T03:45:49;6.93;;;2.13;;
26486;SDS011;14425;56.136;40.360;2024-02-26T03:48:14;5.15;;;2.70;;
26486;SDS011;14425;56.136;40.360;2024-02-26T03:50:39;4.45;;;2.85;;
26486;SDS011;14425;56.136;40.360;2024-02-26T03:53:05;4.05;;;2.00;;
26486;SDS011;14425;56.136;40.360;2024-02-26T03:55:31;4.65;;;2.08;;
26486;SDS011;14425;56.136;40.360;2024-02-26T03:57:56;5.20;;;3.20;;
26486;SDS011;14425;56.136;40.360;2024-02-26T04:00:22;5.90;;;2.55;;
26486;SDS011;14425;56.136;40.360;2024-02-26T04:02:47;4.30;;;2.60;;
26486;SDS011;14425;56.136;40.360;2024-02-26T04:05:13;4.40;;;1.95;;
26486;SDS011;14425;56.136;40.360;2024-02-26T04:07:38;6.05;;;2.40;;
26486;SDS011;14425;56.136;40.360;2024-02-26T04:10:08;4.93;;;2.42;;
26486;SDS011;14425;56.136;40.360;2024-02-26T04:12:33;7.18;;;2.33;;
26486;SDS011;14425;56.136;40.360;2024-02-26T04:14:59;4.50;;;2.13;;
26486;SDS011;14425;56.136;40.360;2024-02-26T04:17:24;4.93;;;2.20;;
26486;SDS011;14425;56.136;40.360;2024-02-26T04:19:50;5.22;;;2.55;;
26486;SDS011;14425;56.136;40.360;2024-02-26T04:22:15;4.97;;;2.40;;
26486;SDS011;14425;56.136;40.360;2024-02-26T04:24:41;4.50;;;2.17;;
26486;SDS011;14425;56.136;40.360;2024-02-26T04:27:08;4.18;;;2.35;;
26486;SDS011;14425;56.136;40.360;2024-02-26T04:29:34;6.53;;;2.17;;
26486;SDS011;14425;56.136;40.360;2024-02-26T04:31:59;5.30;;;2.75;;
26486;SDS011;14425;56.136;40.360;2024-02-26T04:34:25;8.38;;;2.97;;
26486;SDS011;14425;56.136;40.360;2024-02-26T04:36:53;7.82;;;3.80;;
26486;SDS011;14425;56.136;40.360;2024-02-26T04:39:18;7.15;;;2.92;;
26486;SDS011;14425;56.136;40.360;2024-02-26T04:41:47;5.80;;;2.65;;
26486;SDS011;14425;56.136;40.360;2024-02-26T04:44:12;10.68;;;3.33;;
26486;SDS011;14425;56.136;40.360;2024-02-26T04:46:38;5.53;;;2.47;;
26486;SDS011;14425;56.136;40.360;2024-02-26T04:49:06;5.93;;;2.28;;
26486;SDS011;14425;56.136;40.360;2024-02-26T04:51:32;7.00;;;1.80;;
26486;SDS011;14425;56.136;40.360;2024-02-26T04:54:00;9.23;;;2.50;;
26486;SDS011;14425;56.136;40.360;2024-02-26T04:56:25;2.50;;;1.63;;
26486;SDS011;14425;56.136;40.360;2024-02-26T04:58:51;3.63;;;2.97;;
26486;SDS011;14425;56.136;40.360;2024-02-26T05:01:16;6.38;;;2.28;;
26486;SDS011;14425;56.136;40.360;2024-02-26T05:03:43;8.38;;;3.03;;
26486;SDS011;14425;56.136;40.360;2024-02-26T05:06:12;4.75;;;2.80;;
26486;SDS011;14425;56.136;40.360;2024-02-26T05:08:38;7.63;;;2.53;;
26486;SDS011;14425;56.136;40.360;2024-02-26T05:11:06;5.68;;;2.45;;
26486;SDS011;14425;56.136;40.360;2024-02-26T05:13:31;5.25;;;2.50;;
26486;SDS011;14425;56.136;40.360;2024-02-26T05:15:57;5.45;;;2.92;;
26486;SDS011;14425;56.136;40.360;2024-02-26T05:18:22;5.65;;;2.35;;
26486;SDS011;14425;56.136;40.360;2024-02-26T05:20:48;6.43;;;2.97;;
26486;SDS011;14425;56.136;40.360;2024-02-26T05:23:13;5.82;;;2.55;;
26486;SDS011;14425;56.136;40.360;2024-02-26T05:25:41;5.93;;;2.58;;
26486;SDS011;14425;56.136;40.360;2024-02-26T05:28:06;4.43;;;2.35;;
26486;SDS011;14425;56.136;40.360;2024-02-26T05:30:32;7.43;;;2.97;;
26486;SDS011;14425;56.136;40.360;2024-02-26T05:32:58;6.22;;;2.30;;
26486;SDS011;14425;56.136;40.360;2024-02-26T05:35:24;5.35;;;2.30;;
26486;SDS011;14425;56.136;40.360;2024-02-26T05:37:49;5.75;;;2.72;;
26486;SDS011;14425;56.136;40.360;2024-02-26T05:40:15;5.32;;;2.90;;
26486;SDS011;14425;56.136;40.360;2024-02-26T05:42:40;7.18;;;3.22;;
26486;SDS011;14425;56.136;40.360;2024-02-26T05:45:06;6.93;;;2.95;;
26486;SDS011;14425;56.136;40.360;2024-02-26T05:47:34;6.63;;;2.70;;
26486;SDS011;14425;56.136;40.360;2024-02-26T05:50:00;7.47;;;2.90;;
26486;SDS011;14425;56.136;40.360;2024-02-26T05:52:26;5.85;;;2.53;;
26486;SDS011;14425;56.136;40.360;2024-02-26T05:54:51;8.40;;;3.38;;
26486;SDS011;14425;56.136;40.360;2024-02-26T05:57:17;6.20;;;2.65;;
26486;SDS011;14425;56.136;40.360;2024-02-26T05:59:43;6.05;;;2.72;;
26486;SDS011;14425;56.136;40.360;2024-02-26T06:02:09;9.55;;;3.30;;
26486;SDS011;14425;56.136;40.360;2024-02-26T06:04:34;3.92;;;2.22;;
26486;SDS011;14425;56.136;40.360;2024-02-26T06:07:00;6.10;;;2.78;;
26486;SDS011;14425;56.136;40.360;2024-02-26T06:09:25;5.28;;;2.63;;
26486;SDS011;14425;56.136;40.360;2024-02-26T06:11:50;6.05;;;3.20;;
26486;SDS011;14425;56.136;40.360;2024-02-26T06:14:16;5.22;;;2.85;;
26486;SDS011;14425;56.136;40.360;2024-02-26T06:16:44;6.43;;;2.83;;
26486;SDS011;14425;56.136;40.360;2024-02-26T06:19:09;6.03;;;2.88;;
26486;SDS011;14425;56.136;40.360;2024-02-26T06:21:34;7.78;;;3.10;;
26486;SDS011;14425;56.136;40.360;2024-02-26T06:24:00;6.13;;;1.95;;
26486;SDS011;14425;56.136;40.360;2024-02-26T06:26:26;8.55;;;3.38;;
26486;SDS011;14425;56.136;40.360;2024-02-26T06:28:54;5.60;;;3.17;;
26486;SDS011;14425;56.136;40.360;2024-02-26T06:31:20;6.78;;;2.95;;
26486;SDS011;14425;56.136;40.360;2024-02-26T06:33:47;5.25;;;2.50;;
26486;SDS011;14425;56.136;40.360;2024-02-26T06:36:13;7.78;;;3.50;;
26486;SDS011;14425;56.136;40.360;2024-02-26T06:38:38;6.35;;;2.95;;
26486;SDS011;14425;56.136;40.360;2024-02-26T06:41:03;11.93;;;2.92;;
26486;SDS011;14425;56.136;40.360;2024-02-26T06:43:29;8.02;;;3.53;;
26486;SDS011;14425;56.136;40.360;2024-02-26T06:45:54;6.47;;;3.00;;
26486;SDS011;14425;56.136;40.360;2024-02-26T06:48:20;4.93;;;3.20;;
26486;SDS011;14425;56.136;40.360;2024-02-26T06:50:45;6.90;;;2.72;;
26486;SDS011;14425;56.136;40.360;2024-02-26T06:53:10;6.55;;;2.35;;
26486;SDS011;14425;56.136;40.360;2024-02-26T06:55:36;6.10;;;2.53;;
26486;SDS011;14425;56.136;40.360;2024-02-26T06:58:05;4.97;;;2.55;;
26486;SDS011;14425;56.136;40.360;2024-02-26T07:00:30;6.38;;;2.47;;
26486;SDS011;14425;56.136;40.360;2024-02-26T07:02:56;7.05;;;3.05;;
26486;SDS011;14425;56.136;40.360;2024-02-26T07:05:21;5.70;;;2.97;;
26486;SDS011;14425;56.136;40.360;2024-02-26T07:07:47;6.20;;;2.53;;
26486;SDS011;14425;56.136;40.360;2024-02-26T07:10:12;8.48;;;2.65;;
26486;SDS011;14425;56.136;40.360;2024-02-26T07:12:38;8.38;;;3.15;;
26486;SDS011;14425;56.136;40.360;2024-02-26T07:15:03;7.40;;;2.58;;
26486;SDS011;14425;56.136;40.360;2024-02-26T07:17:30;4.75;;;2.60;;
26486;SDS011;14425;56.136;40.360;2024-02-26T07:19:55;4.88;;;3.15;;
26486;SDS011;14425;56.136;40.360;2024-02-26T07:22:21;5.97;;;3.10;;
26486;SDS011;14425;56.136;40.360;2024-02-26T07:24:47;4.97;;;2.50;;
26486;SDS011;14425;56.136;40.360;2024-02-26T07:27:12;8.30;;;2.83;;
26486;SDS011;14425;56.136;40.360;2024-02-26T07:29:38;7.40;;;2.80;;
26486;SDS011;14425;56.136;40.360;2024-02-26T07:32:03;7.47;;;3.40;;
26486;SDS011;14425;56.136;40.360;2024-02-26T07:34:29;7.03;;;2.95;;
26486;SDS011;14425;56.136;40.360;2024-02-26T07:36:55;2.38;;;1.55;;
26486;SDS011;14425;56.136;40.360;2024-02-26T07:39:21;4.60;;;2.17;;
26486;SDS011;14425;56.136;40.360;2024-02-26T07:41:47;4.60;;;2.47;;
26486;SDS011;14425;56.136;40.360;2024-02-26T07:44:15;9.15;;;3.30;;
26486;SDS011;14425;56.136;40.360;2024-02-26T07:46:40;11.27;;;3.88;;
26486;SDS011;14425;56.136;40.360;2024-02-26T07:49:06;7.63;;;3.03;;
26486;SDS011;14425;56.136;40.360;2024-02-26T07:51:31;4.53;;;2.50;;
26486;SDS011;14425;56.136;40.360;2024-02-26T07:53:56;7.20;;;2.97;;
26486;SDS011;14425;56.136;40.360;2024-02-26T07:56:22;5.88;;;2.65;;
26486;SDS011;14425;56.136;40.360;2024-02-26T07:58:50;6.05;;;2.42;;
26486;SDS011;14425;56.136;40.360;2024-02-26T08:01:16;6.20;;;2.50;;
26486;SDS011;14425;56.136;40.360;2024-02-26T08:03:41;6.45;;;2.83;;
26486;SDS011;14425;56.136;40.360;2024-02-26T08:06:08;5.95;;;2.33;;
26486;SDS011;14425;56.136;40.360;2024-02-26T08:08:36;7.65;;;3.63;;
26486;SDS011;14425;56.136;40.360;2024-02-26T08:11:04;6.65;;;3.28;;
26486;SDS011;14425;56.136;40.360;2024-02-26T08:13:29;6.63;;;2.65;;
26486;SDS011;14425;56.136;40.360;2024-02-26T08:15:54;5.45;;;2.90;;
26486;SDS011;14425;56.136;40.360;2024-02-26T08:18:20;6.03;;;3.13;;
26486;SDS011;14425;56.136;40.360;2024-02-26T08:20:45;8.88;;;3.88;;
26486;SDS011;14425;56.136;40.360;2024-02-26T08:23:11;8.10;;;3.05;;
26486;SDS011;14425;56.136;40.360;2024-02-26T08:25:36;4.70;;;2.15;;
26486;SDS011;14425;56.136;40.360;2024-02-26T08:28:02;6.63;;;3.72;;
26486;SDS011;14425;56.136;40.360;2024-02-26T08:30:28;10.68;;;3.38;;
26486;SDS011;14425;56.136;40.360;2024-02-26T08:32:53;4.63;;;2.97;;
26486;SDS011;14425;56.136;40.360;2024-02-26T08:35:19;5.03;;;2.72;;
26486;SDS011;14425;56.136;40.360;2024-02-26T08:37:45;11.32;;;3.75;;
26486;SDS011;14425;56.136;40.360;2024-02-26T08:40:11;7.35;;;3.03;;
26486;SDS011;14425;56.136;40.360;2024-02-26T08:42:36;6.35;;;3.70;;
26486;SDS011;14425;56.136;40.360;2024-02-26T08:45:02;7.85;;;2.97;;
26486;SDS011;14425;56.136;40.360;2024-02-26T08:47:30;9.68;;;3.10;;
26486;SDS011;14425;56.136;40.360;2024-02-26T08:49:55;7.15;;;2.83;;
26486;SDS011;14425;56.136;40.360;2024-02-26T08:52:20;6.60;;;3.38;;
26486;SDS011;14425;56.136;40.360;2024-02-26T08:54:47;8.68;;;3.38;;
26486;SDS011;14425;56.136;40.360;2024-02-26T08:57:12;10.60;;;3.80;;
26486;SDS011;14425;56.136;40.360;2024-02-26T08:59:38;8.65;;;3.00;;
26486;SDS011;14425;56.136;40.360;2024-02-26T09:02:03;6.18;;;3.00;;
26486;SDS011;14425;56.136;40.360;2024-02-26T09:04:28;11.32;;;4.78;;
26486;SDS011;14425;56.136;40.360;2024-02-26T09:06:54;10.85;;;3.53;;
26486;SDS011;14425;56.136;40.360;2024-02-26T09:09:19;10.35;;;3.28;;
26486;SDS011;14425;56.136;40.360;2024-02-26T09:11:45;8.40;;;3.72;;
26486;SDS011;14425;56.136;40.360;2024-02-26T09:14:12;13.05;;;4.45;;
26486;SDS011;14425;56.136;40.360;2024-02-26T09:16:38;13.30;;;3.55;;
26486;SDS011;14425;56.136;40.360;2024-02-26T09:19:03;6.55;;;3.47;;
26486;SDS011;14425;56.136;40.360;2024-02-26T09:21:28;8.85;;;3.08;;
26486;SDS011;14425;56.136;40.360;2024-02-26T09:23:54;11.07;;;3.88;;
26486;SDS011;14425;56.136;40.360;2024-02-26T09:26:19;12.73;;;3.95;;
26486;SDS011;14425;56.136;40.360;2024-02-26T09:28:45;7.43;;;3.45;;
26486;SDS011;14425;56.136;40.360;2024-02-26T09:31:10;8.15;;;3.40;;
26486;SDS011;14425;56.136;40.360;2024-02-26T09:33:35;8.10;;;3.22;;
26486;SDS011;14425;56.136;40.360;2024-02-26T09:36:01;10.75;;;3.28;;
26486;SDS011;14425;56.136;40.360;2024-02-26T09:38:27;9.18;;;3.88;;
26486;SDS011;14425;56.136;40.360;2024-02-26T09:40:52;7.75;;;3.28;;
26486;SDS011;14425;56.136;40.360;2024-02-26T09:43:21;6.80;;;3.38;;
26486;SDS011;14425;56.136;40.360;2024-02-26T09:45:47;8.98;;;3.40;;
26486;SDS011;14425;56.136;40.360;2024-02-26T09:48:12;10.07;;;3.80;;
26486;SDS011;14425;56.136;40.360;2024-02-26T09:50:43;6.03;;;3.28;;
26486;SDS011;14425;56.136;40.360;2024-02-26T09:53:09;12.02;;;3.67;;
26486;SDS011;14425;56.136;40.360;2024-02-26T09:55:36;6.40;;;2.85;;
26486;SDS011;14425;56.136;40.360;2024-02-26T09:58:01;9.75;;;3.58;;
26486;SDS011;14425;56.136;40.360;2024-02-26T10:00:30;8.00;;;3.75;;
26486;SDS011;14425;56.136;40.360;2024-02-26T10:03:01;6.35;;;3.35;;
26486;SDS011;14425;56.136;40.360;2024-02-26T10:05:28;8.15;;;4.00;;
26486;SDS011;14425;56.136;40.360;2024-02-26T10:07:54;8.95;;;3.53;;
26486;SDS011;14425;56.136;40.360;2024-02-26T10:10:22;11.05;;;4.43;;
26486;SDS011;14425;56.136;40.360;2024-02-26T10:12:48;5.40;;;2.95;;
26486;SDS011;14425;56.136;40.360;2024-02-26T10:15:13;5.32;;;3.05;;
26486;SDS011;14425;56.136;40.360;2024-02-26T10:17:39;9.82;;;3.88;;
26486;SDS011;14425;56.136;40.360;2024-02-26T10:20:14;7.38;;;3.35;;
26486;SDS011;14425;56.136;40.360;2024-02-26T10:22:41;8.07;;;3.30;;
26486;SDS011;14425;56.136;40.360;2024-02-26T10:25:06;10.48;;;3.63;;
26486;SDS011;14425;56.136;40.360;2024-02-26T10:27:33;10.48;;;3.40;;
26486;SDS011;14425;56.136;40.360;2024-02-26T10:29:58;7.50;;;3.22;;
26486;SDS011;14425;56.136;40.360;2024-02-26T10:32:28;5.18;;;2.80;;
26486;SDS011;14425;56.136;40.360;2024-02-26T10:34:57;7.65;;;4.50;;
26486;SDS011;14425;56.136;40.360;2024-02-26T10:37:22;7.97;;;3.65;;
26486;SDS011;14425;56.136;40.360;2024-02-26T10:39:48;11.80;;;3.80;;
26486;SDS011;14425;56.136;40.360;2024-02-26T10:42:16;10.73;;;3.65;;
26486;SDS011;14425;56.136;40.360;2024-02-26T10:44:44;9.13;;;3.65;;
26486;SDS011;14425;56.136;40.360;2024-02-26T10:47:10;9.40;;;3.95;;
26486;SDS011;14425;56.136;40.360;2024-02-26T10:49:36;4.80;;;2.80;;
26486;SDS011;14425;56.136;40.360;2024-02-26T10:52:02;8.90;;;3.55;;
26486;SDS011;14425;56.136;40.360;2024-02-26T10:54:29;8.93;;;2.72;;
26486;SDS011;14425;56.136;40.360;2024-02-26T10:56:58;3.95;;;2.00;;
26486;SDS011;14425;56.136;40.360;2024-02-26T10:59:24;5.72;;;2.33;;
26486;SDS011;14425;56.136;40.360;2024-02-26T11:01:49;4.65;;;2.28;;
26486;SDS011;14425;56.136;40.360;2024-02-26T11:04:15;8.40;;;2.75;;
26486;SDS011;14425;56.136;40.360;2024-02-26T11:06:41;4.22;;;2.13;;
26486;SDS011;14425;56.136;40.360;2024-02-26T11:09:08;5.40;;;2.53;;
26486;SDS011;14425;56.136;40.360;2024-02-26T11:11:38;7.78;;;2.40;;
26486;SDS011;14425;56.136;40.360;2024-02-26T11:14:05;8.60;;;2.10;;
26486;SDS011;14425;56.136;40.360;2024-02-26T11:16:31;6.03;;;2.22;;
26486;SDS011;14425;56.136;40.360;2024-02-26T11:18:57;6.43;;;2.78;;
26486;SDS011;14425;56.136;40.360;2024-02-26T11:21:23;2.25;;;1.75;;
26486;SDS011;14425;56.136;40.360;2024-02-26T11:23:53;3.60;;;1.73;;
26486;SDS011;14425;56.136;40.360;2024-02-26T11:26:20;3.65;;;1.73;;
26486;SDS011;14425;56.136;40.360;2024-02-26T11:28:47;5.10;;;2.08;;
26486;SDS011;14425;56.136;40.360;2024-02-26T11:31:13;3.70;;;2.13;;
26486;SDS011;14425;56.136;40.360;2024-02-26T11:33:38;3.45;;;2.33;;
26486;SDS011;14425;56.136;40.360;2024-02-26T11:36:11;4.88;;;1.92;;
26486;SDS011;14425;56.136;40.360;2024-02-26T11:38:36;3.80;;;2.00;;
26486;SDS011;14425;56.136;40.360;2024-02-26T11:41:02;4.60;;;2.33;;
26486;SDS011;14425;56.136;40.360;2024-02-26T11:46:58;4.63;;;2.33;;
26486;SDS011;14425;56.136;40.360;2024-02-26T11:48:59;3.25;;;1.73;;
26486;SDS011;14425;56.136;40.360;2024-02-26T11:51:26;4.05;;;2.20;;
26486;SDS011;14425;56.136;40.360;2024-02-26T11:53:52;5.03;;;2.22;;
26486;SDS011;14425;56.136;40.360;2024-02-26T12:01:40;5.65;;;1.98;;
26486;SDS011;14425;56.136;40.360;2024-02-26T12:04:06;5.60;;;1.58;;
26486;SDS011;14425;56.136;40.360;2024-02-26T12:06:45;4.38;;;2.08;;
26486;SDS011;14425;56.136;40.360;2024-02-26T12:09:10;5.57;;;1.83;;
26486;SDS011;14425;56.136;40.360;2024-02-26T12:11:39;6.07;;;1.42;;
26486;SDS011;14425;56.136;40.360;2024-02-26T12:14:05;5.38;;;2.05;;
26486;SDS011;14425;56.136;40.360;2024-02-26T12:16:36;4.35;;;1.90;;
26486;SDS011;14425;56.136;40.360;2024-02-26T12:19:05;4.80;;;1.73;;
26486;SDS011;14425;56.136;40.360;2024-02-26T12:21:33;7.97;;;1.92;;
26486;SDS011;14425;56.136;40.360;2024-02-26T12:24:12;3.15;;;2.03;;
26486;SDS011;14425;56.136;40.360;2024-02-26T12:26:38;4.57;;;2.22;;
26486;SDS011;14425;56.136;40.360;2024-02-26T12:29:04;7.07;;;1.85;;
26486;SDS011;14425;56.136;40.360;2024-02-26T12:31:30;7.28;;;2.10;;
26486;SDS011;14425;56.136;40.360;2024-02-26T12:33:56;3.95;;;1.77;;
26486;SDS011;14425;56.136;40.360;2024-02-26T12:36:22;3.05;;;2.08;;
26486;SDS011;14425;56.136;40.360;2024-02-26T12:38:48;6.63;;;2.10;;
26486;SDS011;14425;56.136;40.360;2024-02-26T12:41:15;4.07;;;2.35;;
26486;SDS011;14425;56.136;40.360;2024-02-26T12:43:41;4.43;;;1.58;;
26486;SDS011;14425;56.136;40.360;2024-02-26T12:46:06;2.90;;;0.88;;
26486;SDS011;14425;56.136;40.360;2024-02-26T12:48:32;6.70;;;2.33;;
26486;SDS011;14425;56.136;40.360;2024-02-26T12:50:57;5.35;;;1.92;;
26486;SDS011;14425;56.136;40.360;2024-02-26T12:53:23;3.47;;;1.42;;
26486;SDS011;14425;56.136;40.360;2024-02-26T12:55:51;5.05;;;2.10;;
26486;SDS011;14425;56.136;40.360;2024-02-26T12:58:17;5.38;;;1.95;;
26486;SDS011;14425;56.136;40.360;2024-02-26T13:00:42;3.42;;;1.60;;
26486;SDS011;14425;56.136;40.360;2024-02-26T13:03:08;2.63;;;1.38;;
26486;SDS011;14425;56.136;40.360;2024-02-26T13:05:37;6.28;;;2.00;;
26486;SDS011;14425;56.136;40.360;2024-02-26T13:08:03;3.35;;;1.60;;
26486;SDS011;14425;56.136;40.360;2024-02-26T13:10:28;2.95;;;1.40;;
26486;SDS011;14425;56.136;40.360;2024-02-26T13:12:54;3.30;;;1.50;;
26486;SDS011;14425;56.136;40.360;2024-02-26T13:15:20;5.22;;;1.63;;
26486;SDS011;14425;56.136;40.360;2024-02-26T13:17:48;3.63;;;1.88;;
26486;SDS011;14425;56.136;40.360;2024-02-26T13:20:30;3.70;;;1.13;;
26486;SDS011;14425;56.136;40.360;2024-02-26T13:23:02;4.38;;;1.85;;
26486;SDS011;14425;56.136;40.360;2024-02-26T13:25:28;2.38;;;1.40;;
26486;SDS011;14425;56.136;40.360;2024-02-26T13:28:04;2.97;;;1.33;;
26486;SDS011;14425;56.136;40.360;2024-02-26T13:30:29;5.70;;;1.90;;
26486;SDS011;14425;56.136;40.360;2024-02-26T13:32:54;5.50;;;1.77;;
26486;SDS011;14425;56.136;40.360;2024-02-26T13:35:20;7.20;;;1.80;;
26486;SDS011;14425;56.136;40.360;2024-02-26T13:37:45;2.22;;;1.75;;
26486;SDS011;14425;56.136;40.360;2024-02-26T13:40:11;2.97;;;1.30;;
26486;SDS011;14425;56.136;40.360;2024-02-26T13:42:37;5.20;;;2.15;;
26486;SDS011;14425;56.136;40.360;2024-02-26T13:45:02;4.00;;;2.10;;
26486;SDS011;14425;56.136;40.360;2024-02-26T13:47:32;6.32;;;1.58;;
26486;SDS011;14425;56.136;40.360;2024-02-26T13:49:57;3.83;;;1.65;;
26486;SDS011;14425;56.136;40.360;2024-02-26T13:52:23;5.25;;;1.77;;
26486;SDS011;14425;56.136;40.360;2024-02-26T13:54:48;3.92;;;1.33;;
26486;SDS011;14425;56.136;40.360;2024-02-26T13:57:14;2.83;;;1.55;;
26486;SDS011;14425;56.136;40.360;2024-02-26T13:59:39;4.40;;;1.48;;
26486;SDS011;14425;56.136;40.360;2024-02-26T14:02:08;2.97;;;1.63;;
26486;SDS011;14425;56.136;40.360;2024-02-26T14:04:34;2.83;;;1.65;;
26486;SDS011;14425;56.136;40.360;2024-02-26T14:06:59;6.65;;;2.22;;
26486;SDS011;14425;56.136;40.360;2024-02-26T14:09:24;4.13;;;2.03;;
26486;SDS011;14425;56.136;40.360;2024-02-26T14:11:50;5.57;;;2.60;;
26486;SDS011;14425;56.136;40.360;2024-02-26T14:14:15;3.33;;;2.03;;
26486;SDS011;14425;56.136;40.360;2024-02-26T14:16:41;6.10;;;1.75;;
26486;SDS011;14425;56.136;40.360;2024-02-26T14:19:09;4.40;;;1.85;;
26486;SDS011;14425;56.136;40.360;2024-02-26T14:21:34;3.28;;;1.60;;
26486;SDS011;14425;56.136;40.360;2024-02-26T14:24:02;5.65;;;2.38;;
26486;SDS011;14425;56.136;40.360;2024-02-26T14:26:28;4.60;;;1.50;;
26486;SDS011;14425;56.136;40.360;2024-02-26T14:28:54;2.88;;;1.70;;
26486;SDS011;14425;56.136;40.360;2024-02-26T14:31:19;6.30;;;1.55;;
26486;SDS011;14425;56.136;40.360;2024-02-26T14:33:45;7.90;;;2.13;;
26486;SDS011;14425;56.136;40.360;2024-02-26T14:36:11;4.55;;;1.55;;